createdAt,value
2022-12-17T00:09:40.397Z,53.40
2022-12-17T00:20:03.495Z,49.60
2022-12-17T00:30:26.834Z,52.50
2022-12-17T00:40:49.756Z,47.60
2022-12-17T00:51:14.476Z,33.90
2022-12-17T01:01:37.969Z,51.20
2022-12-17T01:12:01.334Z,47.60
2022-12-17T01:22:24.216Z,50.50
2022-12-17T01:32:47.443Z,50.40
2022-12-17T01:43:09.906Z,47.80
2022-12-17T01:53:36.713Z,51.00
2022-12-17T02:03:59.184Z,50.90
2022-12-17T02:14:47.061Z,46.80
2022-12-17T02:25:21.035Z,50.90
2022-12-17T02:35:59.116Z,42.40
2022-12-17T02:46:22.989Z,47.20
2022-12-17T02:56:56.457Z,44.80
2022-12-17T03:07:20.886Z,44.20
2022-12-17T03:17:43.437Z,38.10
2022-12-17T03:28:05.859Z,41.50
2022-12-17T03:38:30.242Z,41.80
2022-12-17T03:48:52.687Z,36.60
2022-12-17T03:59:15.173Z,37.80
2022-12-17T04:09:37.566Z,39.00
2022-12-17T04:20:00.371Z,30.20
2022-12-17T04:30:23.901Z,30.70
2022-12-17T04:40:46.579Z,30.20
2022-12-17T04:51:08.979Z,26.10
2022-12-17T05:01:31.856Z,25.50
2022-12-17T05:11:54.892Z,23.60
2022-12-17T05:22:17.795Z,24.50
2022-12-17T05:32:40.493Z,23.10
2022-12-17T05:43:13.628Z,22.90
2022-12-17T05:53:37.058Z,20.30
2022-12-17T06:04:00.527Z,25.20
2022-12-17T06:14:22.844Z,25.20
2022-12-17T06:24:46.345Z,22.40
2022-12-17T06:35:08.980Z,33.00
2022-12-17T06:45:31.957Z,30.50
2022-12-17T06:55:55.173Z,31.40
2022-12-17T07:06:20.536Z,33.70
2022-12-17T07:16:42.905Z,32.30
2022-12-17T07:27:05.755Z,32.80
2022-12-17T07:37:28.426Z,28.20
2022-12-17T07:47:51.628Z,33.00
2022-12-17T07:58:23.331Z,36.30
2022-12-17T08:08:45.720Z,21.90
2022-12-17T08:19:08.736Z,34.70
2022-12-17T08:29:31.733Z,33.00
2022-12-17T08:39:54.434Z,24.90
2022-12-17T08:50:17.447Z,33.10
2022-12-17T09:00:40.330Z,37.10
2022-12-17T09:11:02.739Z,33.90
2022-12-17T09:21:26.877Z,35.20
2022-12-17T09:31:51.014Z,38.50
2022-12-17T09:42:19.455Z,38.80
2022-12-17T09:52:45.086Z,38.40
2022-12-17T10:03:08.698Z,35.50
2022-12-17T10:13:38.200Z,38.90
2022-12-17T10:24:02.840Z,40.30
2022-12-17T10:34:31.272Z,38.80
2022-12-17T10:44:56.388Z,41.00
2022-12-17T10:55:24.813Z,47.80
2022-12-17T11:05:57.850Z,48.80
2022-12-17T11:16:29.340Z,50.50
2022-12-17T11:26:59.806Z,44.90
2022-12-17T11:37:41.258Z,40.70
2022-12-17T11:48:19.127Z,47.30
2022-12-17T11:58:44.675Z,41.00
2022-12-17T12:09:33.191Z,51.60
2022-12-17T12:20:15.893Z,43.40
2022-12-17T12:30:44.632Z,42.30
2022-12-17T12:41:18.092Z,43.20
2022-12-17T12:51:40.791Z,40.10
2022-12-17T13:02:03.530Z,43.60
2022-12-17T13:12:19.446Z,42.60
2022-12-17T13:22:24.489Z,39.90
2022-12-17T13:32:42.407Z,45.90
2022-12-17T13:42:48.146Z,39.00
2022-12-17T13:52:52.503Z,45.70
2022-12-17T14:02:57.331Z,42.10
2022-12-17T14:13:11.088Z,44.60
2022-12-17T14:23:27.669Z,45.10
2022-12-17T14:33:34.546Z,52.20
2022-12-17T14:43:38.684Z,42.20
2022-12-17T14:53:42.756Z,42.60
2022-12-17T15:03:47.455Z,41.40
2022-12-17T15:13:56.433Z,45.80
2022-12-17T15:24:01.667Z,55.10
2022-12-17T15:34:06.410Z,46.50
2022-12-17T15:44:10.534Z,48.60
2022-12-17T15:54:15.159Z,62.70
2022-12-17T16:04:24.945Z,58.00
2022-12-17T16:14:29.948Z,52.90
2022-12-17T16:24:34.251Z,63.20
2022-12-17T16:34:38.879Z,79.80
2022-12-17T16:44:43.396Z,52.70
2022-12-17T16:54:49.483Z,54.40
2022-12-17T17:04:54.327Z,46.20
2022-12-17T17:14:58.295Z,43.30
2022-12-17T17:25:02.835Z,45.30
2022-12-17T17:35:07.068Z,45.10
2022-12-17T17:45:12.146Z,44.80
2022-12-17T17:55:16.439Z,35.50
2022-12-17T18:05:20.894Z,42.60
2022-12-17T18:15:25.183Z,50.30
2022-12-17T18:25:34.173Z,55.30
2022-12-17T18:35:42.140Z,54.80
2022-12-17T18:45:47.281Z,53.40
2022-12-17T18:55:52.757Z,69.90
2022-12-17T19:05:57.699Z,71.20
2022-12-17T19:16:08.316Z,84.40
2022-12-17T19:26:16.114Z,62.40
2022-12-17T19:36:27.896Z,73.30
2022-12-17T19:46:34.512Z,57.20
2022-12-17T19:56:39.688Z,51.50
2022-12-17T20:06:45.937Z,48.60
2022-12-17T20:27:07.153Z,46.00
2022-12-17T20:37:11.989Z,55.80
2022-12-17T20:47:16.927Z,58.00
2022-12-17T20:57:21.753Z,51.90
2022-12-17T21:07:26.530Z,43.20
2022-12-17T21:17:30.587Z,57.40
2022-12-17T21:27:35.522Z,49.80
2022-12-17T21:37:39.452Z,48.60
2022-12-17T21:47:43.512Z,56.30
2022-12-17T21:57:47.507Z,50.60
2022-12-17T22:07:52.746Z,54.00
2022-12-17T22:17:57.608Z,55.70
2022-12-17T22:28:02.583Z,55.90
2022-12-17T22:41:37.477Z,44.90
2022-12-17T22:48:34.893Z,44.80
2022-12-17T22:58:38.744Z,43.00
2022-12-17T23:08:44.108Z,40.90
2022-12-17T23:18:50.208Z,38.00
2022-12-17T23:28:58.737Z,34.00
2022-12-17T23:39:02.634Z,37.50
2022-12-17T23:49:06.702Z,35.30
2022-12-17T23:59:11.297Z,34.60
